Time;durP1;ratioP1;P1;durP2;ratioP2;P2;SDS_P1;SDS_P2;PMS_P1;PMS_P2;Temp;Humidity;BMP_temperature;BMP_pressure;BME280_temperature;BME280_humidity;BME280_pressure;Samples;Min_cycle;Max_cycle;Signal;HPM_P1;HPM_P2
2024/01/11 00:00:43;;;;;;;22.20;10.10;;;;;;;-0.70;61.93;100827.84;105327;1255;60408;-57
2024/01/11 00:03:11;;;;;;;29.00;10.90;;;;;;;-0.65;61.79;100828.55;105351;1254;73660;-56
2024/01/11 00:05:39;;;;;;;19.20;10.20;;;;;;;-0.64;61.92;100824.74;105234;1254;70309;-57
2024/01/11 00:08:07;;;;;;;21.60;10.50;;;;;;;-0.65;61.89;100825.80;106292;1254;72603;-56
2024/01/11 00:10:35;;;;;;;22.10;11.10;;;;;;;-0.67;61.84;100821.21;105597;1257;61451;-57
2024/01/11 00:13:03;;;;;;;26.50;11.00;;;;;;;-0.74;61.90;100814.84;105356;1260;60364;-57
2024/01/11 00:15:31;;;;;;;28.10;12.40;;;;;;;-0.80;61.74;100807.77;105671;1254;73058;-58
2024/01/11 00:17:59;;;;;;;22.30;10.00;;;;;;;-0.86;61.83;100801.71;105747;1254;70018;-57
2024/01/11 00:20:27;;;;;;;19.90;8.10;;;;;;;-0.90;61.89;100804.23;105871;1254;63754;-56
2024/01/11 00:22:55;;;;;;;24.40;9.10;;;;;;;-0.88;61.81;100793.17;105328;1257;60440;-57
2024/01/11 00:25:23;;;;;;;21.80;10.50;;;;;;;-0.81;61.74;100791.27;105928;1254;60502;-56
2024/01/11 00:27:51;;;;;;;26.80;9.50;;;;;;;-0.77;61.62;100792.88;105917;1254;72851;-56
2024/01/11 00:30:19;;;;;;;20.50;8.90;;;;;;;-0.72;61.64;100783.62;105980;1254;69928;-56
2024/01/11 00:32:47;;;;;;;29.90;9.90;;;;;;;-0.72;61.59;100784.83;105954;1257;72672;-56
2024/01/11 00:35:14;;;;;;;20.00;9.10;;;;;;;-0.75;61.70;100773.19;105288;1258;60374;-56
2024/01/11 00:37:42;;;;;;;22.50;9.40;;;;;;;-0.78;61.79;100766.71;105324;1259;61744;-56
2024/01/11 00:40:10;;;;;;;24.50;10.90;;;;;;;-0.83;61.89;100771.50;105295;1260;74323;-58
2024/01/11 00:42:38;;;;;;;24.90;10.50;;;;;;;-0.86;62.04;100761.42;105468;1254;70411;-58
2024/01/11 00:45:06;;;;;;;18.80;9.40;;;;;;;-0.87;62.14;100766.30;105338;1257;72679;-57
2024/01/11 00:47:34;;;;;;;23.70;10.60;;;;;;;-0.87;62.22;100762.48;105555;1254;60644;-58
2024/01/11 00:50:01;;;;;;;20.00;9.90;;;;;;;-0.86;62.29;100763.98;105289;1254;61048;-56
2024/01/11 00:52:29;;;;;;;19.70;8.50;;;;;;;-0.81;62.05;100761.29;105296;1254;72522;-58
2024/01/11 00:54:57;;;;;;;22.40;9.70;;;;;;;-0.72;61.75;100759.33;105231;1254;69939;-56
2024/01/11 00:57:24;;;;;;;14.10;6.80;;;;;;;-0.66;61.60;100762.80;105877;1257;72450;-57
2024/01/11 00:59:52;;;;;;;17.10;9.30;;;;;;;-0.60;61.27;100765.02;105290;1259;60849;-58
2024/01/11 01:02:20;;;;;;;19.30;8.20;;;;;;;-0.59;61.04;100762.06;105305;1260;62012;-58
2024/01/11 01:04:48;;;;;;;25.00;10.10;;;;;;;-0.61;60.98;100754.20;106028;1254;65041;-57
2024/01/11 01:07:16;;;;;;;36.00;13.20;;;;;;;-0.64;60.90;100753.08;105912;1258;69241;-57
2024/01/11 01:09:43;;;;;;;22.40;11.10;;;;;;;-0.69;60.77;100746.30;105356;1254;72644;-57
2024/01/11 01:12:11;;;;;;;24.20;10.50;;;;;;;-0.72;60.76;100739.69;105329;1257;60571;-56
2024/01/11 01:14:39;;;;;;;21.40;9.30;;;;;;;-0.74;60.82;100736.27;105268;1254;60473;-57
2024/01/11 01:17:06;;;;;;;18.60;8.40;;;;;;;-0.78;60.70;100724.33;105530;1254;64838;-54
2024/01/11 01:19:34;;;;;;;20.30;9.80;;;;;;;-0.82;60.66;100721.17;105383;1254;70615;-57
2024/01/11 01:22:02;;;;;;;21.70;10.20;;;;;;;-0.86;60.52;100714.90;105366;1254;71379;-58
2024/01/11 01:24:31;;;;;;;20.70;8.30;;;;;;;-0.89;60.54;100710.86;105621;1255;61713;-57
2024/01/11 01:26:59;;;;;;;16.80;7.30;;;;;;;-0.84;60.48;100706.41;105715;1255;60520;-58
2024/01/11 01:29:26;;;;;;;16.40;8.30;;;;;;;-0.73;60.38;100701.46;105683;1254;73237;-56
2024/01/11 01:31:54;;;;;;;20.80;9.70;;;;;;;-0.65;60.10;100691.42;105939;1257;69183;-59
2024/01/11 01:34:22;;;;;;;31.20;11.80;;;;;;;-0.62;59.94;100684.27;105850;1260;71598;-55
2024/01/11 01:36:49;;;;;;;20.00;8.80;;;;;;;-0.61;60.02;100684.24;105317;1259;60450;-56
2024/01/11 01:39:17;;;;;;;25.30;10.10;;;;;;;-0.63;60.09;100678.62;105317;1254;60447;-57
2024/01/11 01:41:45;;;;;;;22.30;9.70;;;;;;;-0.66;60.15;100675.09;105361;1259;63743;-57
2024/01/11 01:44:12;;;;;;;27.50;11.60;;;;;;;-0.70;60.13;100668.83;105392;1254;69946;-56
2024/01/11 01:46:40;;;;;;;20.10;8.10;;;;;;;-0.76;60.13;100662.08;106224;1259;72675;-58
2024/01/11 01:49:07;;;;;;;20.80;10.00;;;;;;;-0.83;60.28;100652.48;105385;1257;60522;-56
2024/01/11 01:51:35;;;;;;;21.30;8.30;;;;;;;-0.86;60.39;100652.05;105336;1260;60444;-56
2024/01/11 01:54:03;;;;;;;17.00;7.60;;;;;;;-0.86;60.45;100637.73;105563;1254;73832;-56
2024/01/11 01:56:31;;;;;;;22.40;8.90;;;;;;;-0.78;60.39;100631.49;105376;1257;69048;-54
2024/01/11 01:58:58;;;;;;;22.20;7.90;;;;;;;-0.72;60.23;100622.00;105609;1258;70712;-55
2024/01/11 02:01:27;;;;;;;24.30;9.70;;;;;;;-0.67;60.28;100619.63;105309;1254;60571;-57
2024/01/11 02:03:55;;;;;;;18.30;9.50;;;;;;;-0.66;60.31;100614.42;105919;1259;60687;-56
2024/01/11 02:06:23;;;;;;;22.20;9.70;;;;;;;-0.70;60.34;100609.04;105277;1252;73332;-55
2024/01/11 02:08:54;;;;;;;18.70;8.90;;;;;;;-0.73;60.39;100596.89;105998;1254;70524;-56
2024/01/11 02:11:23;;;;;;;24.20;10.00;;;;;;;-0.79;60.54;100604.84;105210;1257;63749;-56
2024/01/11 02:13:50;;;;;;;21.30;8.50;;;;;;;-0.85;60.64;100590.34;105966;1254;60469;-56
2024/01/11 02:16:18;;;;;;;26.80;10.70;;;;;;;-0.87;60.62;100577.50;105340;1259;60543;-56
2024/01/11 02:18:45;;;;;;;22.60;8.20;;;;;;;-0.88;60.81;100569.61;105272;1254;73808;-56
2024/01/11 02:21:14;;;;;;;19.70;9.20;;;;;;;-0.86;60.84;100560.41;105254;1254;70058;-56
2024/01/11 02:23:45;;;;;;;19.70;8.60;;;;;;;-0.78;60.69;100555.16;105435;1254;71166;-56
2024/01/11 02:26:14;;;;;;;17.80;8.30;;;;;;;-0.71;60.51;100548.76;105393;1257;60968;-56
2024/01/11 02:28:45;;;;;;;18.20;9.90;;;;;;;-0.71;60.50;100538.23;105458;1259;60469;-56
2024/01/11 02:31:13;;;;;;;21.60;9.80;;;;;;;-0.70;60.60;100526.52;105303;1259;73791;-56
2024/01/11 02:33:40;;;;;;;22.30;8.20;;;;;;;-0.69;60.67;100523.55;105316;1254;69188;-57
2024/01/11 02:36:08;;;;;;;27.20;9.50;;;;;;;-0.70;60.64;100524.79;105477;1260;72464;-57
2024/01/11 02:38:36;;;;;;;26.20;10.30;;;;;;;-0.72;60.78;100520.54;105276;1257;60402;-59
2024/01/11 02:41:03;;;;;;;27.20;10.90;;;;;;;-0.72;60.85;100524.86;105643;1254;61467;-57
2024/01/11 02:43:31;;;;;;;25.20;11.50;;;;;;;-0.75;60.74;100511.84;105141;1254;72373;-57
2024/01/11 02:45:59;;;;;;;30.80;9.90;;;;;;;-0.79;60.73;100512.31;105342;1254;70470;-56
2024/01/11 02:48:29;;;;;;;21.40;9.10;;;;;;;-0.79;60.72;100498.89;105809;1254;72804;-55
2024/01/11 02:50:58;;;;;;;17.40;6.70;;;;;;;-0.73;60.53;100494.20;106532;1254;60729;-56
2024/01/11 02:53:26;;;;;;;26.60;9.80;;;;;;;-0.65;60.54;100488.79;105922;1256;60325;-56
2024/01/11 02:55:53;;;;;;;23.00;9.30;;;;;;;-0.59;60.44;100472.23;105827;1254;72678;-57
2024/01/11 02:58:21;;;;;;;21.40;9.20;;;;;;;-0.58;60.48;100467.88;105345;1260;68475;-57
2024/01/11 03:00:49;;;;;;;23.40;10.90;;;;;;;-0.56;60.53;100468.85;105369;1259;72655;-56
2024/01/11 03:03:16;;;;;;;29.50;10.60;;;;;;;-0.59;60.39;100467.05;105319;1256;60588;-57
2024/01/11 03:05:44;;;;;;;33.20;10.60;;;;;;;-0.67;60.40;100458.35;105331;1259;60443;-56
2024/01/11 03:08:11;;;;;;;22.40;10.70;;;;;;;-0.71;60.63;100459.02;105290;1260;72619;-56
2024/01/11 03:10:39;;;;;;;24.00;11.70;;;;;;;-0.76;60.72;100459.86;105248;1254;73066;-56
2024/01/11 03:13:07;;;;;;;17.00;7.20;;;;;;;-0.81;60.76;100452.27;105328;1257;72662;-56
2024/01/11 03:15:34;;;;;;;23.30;11.20;;;;;;;-0.77;60.84;100446.10;105551;1254;61340;-56
2024/01/11 03:18:02;;;;;;;23.60;7.20;;;;;;;-0.71;60.62;100439.71;105301;1254;61019;-56
2024/01/11 03:20:30;;;;;;;24.50;8.60;;;;;;;-0.65;60.57;100434.02;105640;1254;73957;-56
2024/01/11 03:22:58;;;;;;;18.40;7.50;;;;;;;-0.60;60.45;100429.54;105299;1256;70586;-55
2024/01/11 03:25:26;;;;;;;24.50;10.70;;;;;;;-0.60;60.41;100424.70;105315;1254;72622;-55
2024/01/11 03:27:53;;;;;;;19.00;10.00;;;;;;;-0.63;60.57;100428.23;105787;1259;60562;-55
2024/01/11 03:30:21;;;;;;;26.10;11.30;;;;;;;-0.65;60.54;100422.13;105381;1253;60390;-58
2024/01/11 03:32:48;;;;;;;22.30;9.60;;;;;;;-0.67;60.59;100421.15;105299;1260;73826;-57
2024/01/11 03:35:18;;;;;;;21.50;9.60;;;;;;;-0.69;60.68;100409.66;105300;1259;70100;-58
2024/01/11 03:37:45;;;;;;;25.70;11.40;;;;;;;-0.69;60.64;100404.50;105417;1254;63897;-58
2024/01/11 03:40:14;;;;;;;21.10;10.10;;;;;;;-0.73;60.79;100394.48;105234;1254;61254;-57
2024/01/11 03:42:41;;;;;;;19.20;6.50;;;;;;;-0.73;60.84;100377.91;105327;1254;60629;-57
2024/01/11 03:45:09;;;;;;;20.90;7.80;;;;;;;-0.64;60.66;100369.69;105382;1254;74330;-57
2024/01/11 03:47:37;;;;;;;18.60;7.00;;;;;;;-0.57;60.60;100366.71;105240;1259;68900;-57
2024/01/11 03:50:05;;;;;;;20.00;7.50;;;;;;;-0.49;60.57;100355.08;105252;1257;64344;-54
2024/01/11 03:52:33;;;;;;;20.20;8.40;;;;;;;-0.46;60.44;100349.27;105662;1254;60463;-55
2024/01/11 03:55:00;;;;;;;17.70;8.40;;;;;;;-0.47;60.52;100334.50;105286;1254;60016;-57
2024/01/11 03:57:30;;;;;;;18.90;8.20;;;;;;;-0.51;60.51;100323.44;105697;1254;73928;-56
2024/01/11 03:59:58;;;;;;;20.10;8.10;;;;;;;-0.51;60.52;100318.44;105835;1254;61356;-56
2024/01/11 04:02:26;;;;;;;21.40;7.90;;;;;;;-0.56;60.55;100307.74;105774;1259;72958;-56
2024/01/11 04:04:54;;;;;;;18.50;7.70;;;;;;;-0.61;60.64;100300.85;105967;1255;60642;-55
2024/01/11 04:07:22;;;;;;;18.90;7.10;;;;;;;-0.65;60.87;100302.02;105262;1259;60373;-55
2024/01/11 04:09:49;;;;;;;16.00;7.50;;;;;;;-0.60;60.82;100299.25;106029;1254;73906;-55
2024/01/11 04:12:17;;;;;;;13.70;6.90;;;;;;;-0.50;60.86;100292.39;105322;1254;70099;-55
2024/01/11 04:14:44;;;;;;;18.30;8.80;;;;;;;-0.45;60.94;100295.46;105313;1256;62720;-55
2024/01/11 04:17:12;;;;;;;22.50;9.50;;;;;;;-0.42;60.83;100292.79;105308;1257;60671;-54
2024/01/11 04:19:40;;;;;;;20.80;9.80;;;;;;;-0.43;60.87;100303.33;105313;1254;60793;-55
2024/01/11 04:22:07;;;;;;;19.10;8.80;;;;;;;-0.46;60.83;100300.67;105349;1254;73861;-56
2024/01/11 04:24:35;;;;;;;18.10;7.80;;;;;;;-0.49;60.83;100301.83;105338;1254;72156;-55
2024/01/11 04:27:03;;;;;;;16.90;8.60;;;;;;;-0.53;60.84;100289.91;105597;1254;73121;-54
2024/01/11 04:29:30;;;;;;;15.50;6.70;;;;;;;-0.57;60.87;100290.04;105350;1257;60481;-55
2024/01/11 04:31:58;;;;;;;14.00;6.30;;;;;;;-0.63;61.10;100281.31;105821;1254;60441;-55
2024/01/11 04:34:26;;;;;;;19.40;7.60;;;;;;;-0.59;60.96;100287.52;105756;1259;64931;-55
2024/01/11 04:36:54;;;;;;;21.80;7.20;;;;;;;-0.48;60.70;100290.23;105339;1254;70276;-56
2024/01/11 04:39:22;;;;;;;16.80;8.30;;;;;;;-0.45;60.67;100297.56;105273;1256;72670;-55
2024/01/11 04:41:49;;;;;;;20.10;7.90;;;;;;;-0.38;60.56;100302.45;105846;1257;60478;-56
2024/01/11 04:44:17;;;;;;;22.20;11.30;;;;;;;-0.37;60.56;100300.00;105970;1259;60384;-55
2024/01/11 04:46:45;;;;;;;20.00;8.60;;;;;;;-0.40;60.64;100302.54;105446;1254;64913;-57
2024/01/11 04:49:13;;;;;;;15.60;8.80;;;;;;;-0.43;60.69;100300.23;105206;1254;70251;-55
2024/01/11 04:51:41;;;;;;;20.20;8.30;;;;;;;-0.44;60.79;100292.50;105543;1257;72706;-56
2024/01/11 04:54:09;;;;;;;16.60;8.40;;;;;;;-0.45;60.94;100285.84;105425;1253;60448;-56
2024/01/11 04:56:36;;;;;;;18.50;7.00;;;;;;;-0.48;61.01;100271.09;105263;1259;60449;-55
2024/01/11 04:59:04;;;;;;;18.60;8.50;;;;;;;-0.43;61.06;100272.98;105589;1254;73843;-56
2024/01/11 05:01:31;;;;;;;18.90;8.10;;;;;;;-0.32;60.82;100277.77;105334;1254;70260;-56
2024/01/11 05:03:59;;;;;;;23.90;9.80;;;;;;;-0.33;61.05;100284.70;105321;1254;72679;-56
2024/01/11 05:06:27;;;;;;;15.10;7.70;;;;;;;-0.31;61.06;100292.41;105307;1254;60387;-56
2024/01/11 05:08:54;;;;;;;17.50;7.90;;;;;;;-0.26;60.98;100287.18;105287;1254;60626;-56
2024/01/11 05:11:24;;;;;;;17.70;9.60;;;;;;;-0.26;61.08;100282.55;105290;1259;73788;-57
2024/01/11 05:13:52;;;;;;;23.80;8.90;;;;;;;-0.29;61.15;100278.85;105369;1254;62077;-56
2024/01/11 05:16:27;;;;;;;15.60;7.20;;;;;;;-0.29;61.24;100275.08;105306;1257;63859;-56
2024/01/11 05:18:55;;;;;;;14.40;7.10;;;;;;;-0.35;61.31;100276.51;105829;1257;60658;-56
2024/01/11 05:21:24;;;;;;;20.40;7.70;;;;;;;-0.40;61.58;100277.03;105888;1254;60463;-56
2024/01/11 05:23:52;;;;;;;16.70;7.00;;;;;;;-0.40;61.64;100274.10;105880;1255;64916;-57
2024/01/11 05:26:20;;;;;;;21.00;6.50;;;;;;;-0.29;61.45;100264.20;105954;1259;60434;-58
2024/01/11 05:28:48;;;;;;;16.50;5.90;;;;;;;-0.18;61.38;100271.05;105978;1256;63871;-56
2024/01/11 05:31:16;;;;;;;18.10;7.60;;;;;;;-0.10;61.33;100265.23;105341;1257;60981;-55
2024/01/11 05:33:46;;;;;;;19.70;9.00;;;;;;;-0.07;61.33;100259.95;105450;1254;60520;-56
2024/01/11 05:36:15;;;;;;;20.80;9.20;;;;;;;-0.11;61.42;100257.84;105438;1254;73906;-56
2024/01/11 05:38:44;;;;;;;20.20;7.70;;;;;;;-0.10;61.50;100261.25;105240;1254;70105;-56
2024/01/11 05:41:12;;;;;;;16.50;7.30;;;;;;;-0.11;61.60;100263.20;105384;1259;71182;-56
2024/01/11 05:43:40;;;;;;;22.20;10.10;;;;;;;-0.13;61.70;100264.82;105296;1254;60534;-56
2024/01/11 05:46:08;;;;;;;21.20;9.00;;;;;;;-0.15;61.71;100254.02;105508;1254;60572;-56
2024/01/11 05:48:35;;;;;;;22.60;9.90;;;;;;;-0.10;61.77;100263.02;105356;1254;64913;-56
2024/01/11 05:51:03;;;;;;;17.20;6.80;;;;;;;-0.04;61.71;100269.84;105505;1259;70314;-56
2024/01/11 05:53:35;;;;;;;16.10;7.80;;;;;;;0.07;61.58;100261.33;105333;1257;72111;-57
2024/01/11 05:56:10;;;;;;;12.70;5.20;;;;;;;0.15;61.47;100253.23;105597;1254;60390;-56
2024/01/11 05:58:39;;;;;;;22.50;10.60;;;;;;;0.18;61.34;100255.89;105529;1254;60561;-56
2024/01/11 06:01:07;;;;;;;20.20;8.70;;;;;;;0.15;61.39;100251.33;105648;1257;64920;-57
2024/01/11 06:03:35;;;;;;;24.50;9.90;;;;;;;0.14;61.44;100247.95;105560;1254;69238;-57
2024/01/11 06:06:03;;;;;;;26.20;9.20;;;;;;;0.12;61.43;100247.84;105257;1259;63754;-57
2024/01/11 06:08:31;;;;;;;19.40;8.10;;;;;;;0.09;61.50;100249.52;105486;1255;60538;-57
2024/01/11 06:10:59;;;;;;;17.80;6.30;;;;;;;0.11;61.44;100240.96;105197;1259;60370;-56
2024/01/11 06:13:27;;;;;;;17.90;7.60;;;;;;;0.18;61.40;100237.42;105716;1258;65411;-56
2024/01/11 06:15:55;;;;;;;17.00;8.50;;;;;;;0.26;61.50;100235.04;105257;1254;61598;-57
2024/01/11 06:18:22;;;;;;;16.70;7.90;;;;;;;0.32;61.42;100230.64;105337;1259;63711;-56
2024/01/11 06:20:50;;;;;;;17.70;9.20;;;;;;;0.30;61.31;100217.98;105326;1259;60616;-56
2024/01/11 06:23:19;;;;;;;18.00;6.90;;;;;;;0.24;61.29;100205.10;106804;1254;60035;-56
2024/01/11 06:25:47;;;;;;;19.30;9.10;;;;;;;0.17;61.45;100192.09;106044;1254;73866;-56
2024/01/11 06:28:14;;;;;;;20.70;8.40;;;;;;;0.13;61.62;100187.58;105351;1254;70092;-55
2024/01/11 06:30:43;;;;;;;17.80;9.20;;;;;;;0.08;61.62;100172.27;105234;1256;62862;-57
2024/01/11 06:33:11;;;;;;;20.50;8.20;;;;;;;0.10;61.60;100168.20;105383;1254;60580;-55
2024/01/11 06:35:39;;;;;;;15.00;7.60;;;;;;;0.17;61.47;100167.77;105245;1259;60374;-57
2024/01/11 06:38:07;;;;;;;18.40;7.20;;;;;;;0.23;61.41;100170.81;105365;1254;73825;-59
2024/01/11 06:40:35;;;;;;;20.70;8.90;;;;;;;0.32;61.33;100179.06;105439;1253;61525;-59
2024/01/11 06:43:03;;;;;;;23.70;11.20;;;;;;;0.39;61.13;100172.77;105343;1257;73349;-59
2024/01/11 06:45:30;;;;;;;24.60;11.00;;;;;;;0.33;61.10;100172.32;105681;1254;60543;-58
2024/01/11 06:47:58;;;;;;;20.70;8.40;;;;;;;0.27;61.16;100163.89;105282;1259;60341;-50
2024/01/11 06:50:26;;;;;;;17.50;7.80;;;;;;;0.27;61.17;100163.95;105290;1254;63836;-58
2024/01/11 06:52:53;;;;;;;20.20;8.70;;;;;;;0.23;61.21;100158.04;105249;1259;61652;-59
2024/01/11 06:55:21;;;;;;;20.40;8.90;;;;;;;0.14;61.22;100163.23;105292;1257;72660;-59
2024/01/11 06:57:49;;;;;;;20.10;8.70;;;;;;;0.09;61.33;100172.77;105246;1254;60638;-58
2024/01/11 07:00:16;;;;;;;21.00;9.10;;;;;;;0.06;61.45;100171.15;105269;1257;60425;-57
2024/01/11 07:02:44;;;;;;;13.70;7.10;;;;;;;0.11;61.28;100162.15;105242;1254;65491;-58
2024/01/11 07:05:12;;;;;;;18.10;7.50;;;;;;;0.20;61.30;100163.51;105368;1254;71360;-58
2024/01/11 07:07:40;;;;;;;22.70;11.70;;;;;;;0.28;61.11;100168.89;105353;1254;64400;-61
2024/01/11 07:10:08;;;;;;;23.20;10.40;;;;;;;0.34;61.02;100165.70;105151;1259;60472;-59
2024/01/11 07:12:37;;;;;;;22.00;8.60;;;;;;;0.36;60.88;100158.20;105473;1254;62192;-57
2024/01/11 07:15:07;;;;;;;18.90;8.10;;;;;;;0.36;60.91;100160.62;105415;1254;74948;-57
2024/01/11 07:17:35;;;;;;;31.00;13.40;;;;;;;0.28;60.64;100164.54;107163;1254;60712;-58
2024/01/11 07:20:04;;;;;;;20.40;8.70;;;;;;;0.25;60.90;100160.21;105238;1259;74868;-59
2024/01/11 07:22:31;;;;;;;16.70;8.70;;;;;;;0.29;60.79;100157.65;105588;1254;62703;-56
2024/01/11 07:24:59;;;;;;;16.20;7.40;;;;;;;0.34;60.47;100153.98;105316;1254;62692;-57
2024/01/11 07:27:27;;;;;;;20.00;8.10;;;;;;;0.38;60.31;100148.83;105279;1259;64896;-59
2024/01/11 07:29:54;;;;;;;20.30;11.30;;;;;;;0.37;60.41;100144.70;105290;1253;61396;-58
2024/01/11 07:32:22;;;;;;;19.60;9.50;;;;;;;0.36;60.66;100137.69;105285;1257;71973;-60
2024/01/11 07:34:50;;;;;;;25.00;10.90;;;;;;;0.36;60.50;100149.92;106004;1256;60566;-59
2024/01/11 07:37:18;;;;;;;22.90;10.20;;;;;;;0.32;60.48;100149.58;105410;1259;60338;-60
2024/01/11 07:39:46;;;;;;;27.30;11.00;;;;;;;0.27;60.53;100146.48;105338;1254;66306;-59
2024/01/11 07:42:14;;;;;;;22.90;10.50;;;;;;;0.17;60.60;100139.48;105402;1254;70119;-58
2024/01/11 07:44:41;;;;;;;22.80;13.30;;;;;;;0.08;60.90;100136.23;105388;1257;63756;-58
2024/01/11 07:47:10;;;;;;;23.70;9.10;;;;;;;0.03;61.18;100138.31;105332;1257;60553;-60
2024/01/11 07:49:38;;;;;;;23.10;10.10;;;;;;;0.07;61.14;100135.59;105335;1256;60588;-59
2024/01/11 07:52:06;;;;;;;23.70;12.10;;;;;;;0.11;61.09;100137.32;105289;1256;357442;-57
2024/01/11 07:56:53;;;;;;;28.40;10.30;;;;;;;-0.26;62.30;100141.20;102510;1290;600998;-58
2024/01/11 07:59:21;;;;;;;27.00;10.50;;;;;;;0.00;61.53;100137.23;104710;1269;59517;-56
2024/01/11 08:01:48;;;;;;;23.10;10.30;;;;;;;0.03;61.52;100122.43;104590;1267;62357;-58
2024/01/11 08:04:16;;;;;;;24.50;10.10;;;;;;;0.02;61.53;100123.86;104646;1269;74412;-59
2024/01/11 08:06:43;;;;;;;21.20;9.90;;;;;;;-0.02;61.53;100118.34;104694;1270;69561;-56
2024/01/11 08:09:13;;;;;;;25.30;11.30;;;;;;;-0.05;61.48;100124.33;104514;1264;250645;-59
2024/01/11 08:11:43;;;;;;;26.30;10.30;;;;;;;-0.11;61.52;100121.98;104884;1264;59709;-55
2024/01/11 08:14:17;;;;;;;22.70;8.80;;;;;;;-0.08;61.51;100117.22;104866;1261;62199;-58
2024/01/11 08:16:45;;;;;;;17.40;9.90;;;;;;;-0.04;61.41;100124.61;104767;1261;73246;-58
2024/01/11 08:19:14;;;;;;;26.50;10.80;;;;;;;0.04;61.42;100124.48;104993;1264;69193;-58
2024/01/11 08:21:42;;;;;;;21.00;9.30;;;;;;;0.08;61.35;100123.44;105057;1261;72653;-58
2024/01/11 08:24:09;;;;;;;32.90;12.00;;;;;;;0.10;61.42;100124.77;105095;1260;60647;-58
2024/01/11 08:26:37;;;;;;;20.10;9.10;;;;;;;0.10;61.46;100126.64;104949;1264;59720;-59
2024/01/11 08:29:05;;;;;;;31.00;12.10;;;;;;;0.11;61.40;100131.45;105506;1259;64143;-59
2024/01/11 08:31:33;;;;;;;26.00;10.50;;;;;;;0.12;61.40;100131.73;105581;1260;68917;-59
2024/01/11 08:34:04;;;;;;;25.50;12.20;;;;;;;0.12;61.23;100134.86;105566;1260;63731;-58
2024/01/11 08:36:34;;;;;;;23.60;10.30;;;;;;;0.06;61.03;100139.75;105213;1259;59723;-58
2024/01/11 08:39:05;;;;;;;27.10;12.50;;;;;;;-0.01;60.90;100132.80;106346;1255;59717;-58
2024/01/11 08:41:33;;;;;;;21.40;8.40;;;;;;;0.03;60.85;100134.70;105656;1254;64557;-58
2024/01/11 08:44:02;;;;;;;21.00;9.70;;;;;;;0.10;60.65;100127.32;105637;1254;70858;-58
2024/01/11 08:46:30;;;;;;;18.50;9.10;;;;;;;0.18;60.71;100130.47;105631;1257;72675;-59
2024/01/11 08:48:58;;;;;;;27.00;12.40;;;;;;;0.26;60.43;100123.41;105684;1260;59605;-60
2024/01/11 08:51:26;;;;;;;20.70;10.20;;;;;;;0.31;60.41;100123.73;105233;1255;59740;-58
2024/01/11 08:53:54;;;;;;;24.60;10.30;;;;;;;0.32;60.37;100125.56;105728;1254;70826;-57
2024/01/11 08:56:22;;;;;;;22.60;9.90;;;;;;;0.30;60.13;100120.47;106328;1254;69122;-57
2024/01/11 08:58:49;;;;;;;24.00;9.90;;;;;;;0.26;60.21;100115.30;105919;1256;72647;-59
2024/01/11 09:01:18;;;;;;;25.20;10.00;;;;;;;0.22;60.21;100114.44;105248;1257;59784;-57
2024/01/11 09:03:47;;;;;;;23.90;9.60;;;;;;;0.19;60.17;100109.39;105307;1260;59635;-59
2024/01/11 09:06:15;;;;;;;24.30;11.20;;;;;;;0.14;60.22;100111.98;105260;1255;71812;-57
2024/01/11 09:08:43;;;;;;;23.10;10.60;;;;;;;0.09;60.29;100096.68;105217;1260;60173;-58
2024/01/11 09:11:11;;;;;;;27.10;10.90;;;;;;;0.13;60.26;100092.23;105236;1254;72956;-58
2024/01/11 09:13:40;;;;;;;22.80;10.30;;;;;;;0.22;60.16;100093.38;105257;1257;61287;-59
2024/01/11 09:16:09;;;;;;;28.80;11.30;;;;;;;0.28;60.03;100090.89;105472;1254;59663;-60
2024/01/11 09:18:36;;;;;;;20.10;8.40;;;;;;;0.26;59.96;100091.18;105415;1260;64068;-59
2024/01/11 09:21:04;;;;;;;28.50;12.80;;;;;;;0.20;60.11;100082.95;105486;1260;69028;-59
2024/01/11 09:23:33;;;;;;;21.60;9.60;;;;;;;0.15;60.32;100077.80;105358;1257;71179;-58
2024/01/11 09:26:00;;;;;;;21.80;9.60;;;;;;;0.11;60.63;100070.38;105568;1251;59826;-58
2024/01/11 09:28:28;;;;;;;27.40;9.90;;;;;;;0.09;60.89;100063.75;105331;1257;59603;-60
2024/01/11 09:30:59;;;;;;;24.10;10.10;;;;;;;0.09;61.13;100054.27;105730;1251;72990;-60
2024/01/11 09:33:28;;;;;;;19.50;7.90;;;;;;;0.16;61.01;100046.36;105719;1254;60330;-61
2024/01/11 09:35:56;;;;;;;22.50;10.30;;;;;;;0.26;60.88;100038.88;105756;1255;72647;-58
2024/01/11 09:38:24;;;;;;;21.30;7.70;;;;;;;0.35;60.63;100033.98;105391;1254;59781;-60
2024/01/11 09:41:00;;;;;;;26.00;10.90;;;;;;;0.37;60.36;100034.97;105989;1253;60010;-58
2024/01/11 09:43:27;;;;;;;24.40;10.40;;;;;;;0.31;60.16;100026.73;105813;1254;64287;-59
2024/01/11 09:45:55;;;;;;;21.00;9.80;;;;;;;0.28;60.21;100024.66;105270;1251;71003;-62
2024/01/11 09:48:23;;;;;;;17.60;8.20;;;;;;;0.26;60.31;100007.48;105155;1253;72765;-59
2024/01/11 09:50:50;;;;;;;22.20;9.10;;;;;;;0.23;60.36;100012.59;105892;1254;59666;-60
2024/01/11 09:53:18;;;;;;;18.10;7.90;;;;;;;0.18;60.34;100016.78;105220;1251;60394;-58
2024/01/11 09:55:47;;;;;;;26.30;8.20;;;;;;;0.18;60.70;100001.62;106722;1253;63320;-58
2024/01/11 09:58:14;;;;;;;24.30;11.30;;;;;;;0.28;60.74;99998.80;105423;1259;68728;-61
2024/01/11 10:00:43;;;;;;;27.00;10.40;;;;;;;0.37;61.10;99995.27;105345;1255;71721;-60
2024/01/11 10:03:11;;;;;;;19.00;7.50;;;;;;;0.44;62.11;99984.94;105377;1259;60185;-60
2024/01/11 10:05:39;;;;;;;20.00;9.60;;;;;;;0.50;63.31;99981.73;105320;1260;59643;-60
2024/01/11 10:08:07;;;;;;;23.10;8.60;;;;;;;0.52;63.32;99968.73;105292;1260;75698;-57
2024/01/11 10:10:35;;;;;;;22.40;7.10;;;;;;;0.50;63.18;99967.77;109261;1251;70365;-59
2024/01/11 10:13:02;;;;;;;23.80;13.50;;;;;;;0.50;62.87;99964.65;109243;1251;72488;-60
2024/01/11 10:15:30;;;;;;;19.00;8.30;;;;;;;0.62;62.25;99961.00;109280;1252;59192;-57
2024/01/11 10:17:57;;;;;;;18.70;8.50;;;;;;;0.60;61.71;99950.09;105759;1254;59939;-58
2024/01/11 10:20:25;;;;;;;13.60;7.30;;;;;;;0.65;61.25;99946.21;105098;1253;73922;-59
2024/01/11 10:22:53;;;;;;;18.00;8.40;;;;;;;0.75;60.98;99939.86;105183;1260;69201;-57
2024/01/11 10:25:21;;;;;;;24.00;10.80;;;;;;;0.79;60.66;99939.86;105982;1251;72673;-60
2024/01/11 10:27:49;;;;;;;22.30;7.30;;;;;;;0.75;60.11;99940.05;105179;1259;60749;-59
2024/01/11 10:30:16;;;;;;;22.70;9.70;;;;;;;0.69;60.40;99942.05;105259;1260;59647;-61
2024/01/11 10:32:48;;;;;;;28.00;12.20;;;;;;;0.69;60.46;99937.23;105375;1254;73236;-59
2024/01/11 10:35:18;;;;;;;23.10;9.90;;;;;;;0.64;60.31;99927.10;105365;1259;71025;-60
2024/01/11 10:37:46;;;;;;;16.20;9.40;;;;;;;0.60;59.86;99924.20;105356;1258;71555;-60
2024/01/11 10:40:14;;;;;;;27.20;10.50;;;;;;;0.59;59.49;99919.73;105414;1254;59781;-60
2024/01/11 10:42:44;;;;;;;17.70;6.70;;;;;;;0.57;59.26;99926.04;105249;1255;60116;-61
2024/01/11 10:45:16;;;;;;;21.10;7.70;;;;;;;0.68;58.91;99910.84;105356;1258;72260;-61
2024/01/11 10:47:58;;;;;;;22.80;8.90;;;;;;;0.78;58.74;99914.18;105466;1251;62607;-61
2024/01/11 10:50:39;;;;;;;22.80;9.00;;;;;;;0.88;58.64;99911.11;105661;1257;63739;-61
2024/01/11 10:53:27;;;;;;;29.40;8.50;;;;;;;0.96;58.48;99897.63;105379;1254;59625;-61
2024/01/11 10:55:57;;;;;;;22.60;10.20;;;;;;;1.03;58.35;99893.31;105753;1258;59628;-60
2024/01/11 10:58:26;;;;;;;22.00;10.30;;;;;;;1.03;57.66;99902.31;105325;1251;73381;-62
2024/01/11 11:00:55;;;;;;;33.10;11.20;;;;;;;0.92;57.44;99901.60;105822;1254;70144;-61
2024/01/11 11:03:26;;;;;;;21.80;10.80;;;;;;;0.92;57.64;99900.53;105902;1255;73991;-61
2024/01/11 11:05:55;;;;;;;28.80;9.20;;;;;;;0.93;57.64;99894.48;105753;1255;59704;-61
2024/01/11 11:08:24;;;;;;;17.50;8.50;;;;;;;0.92;57.75;99892.64;105867;1255;59751;-60
2024/01/11 11:11:00;;;;;;;22.80;9.60;;;;;;;0.92;57.54;99899.70;105884;1255;64139;-62
2024/01/11 11:13:28;;;;;;;20.70;6.80;;;;;;;0.91;57.24;99889.56;105755;1254;61866;-58
2024/01/11 11:15:57;;;;;;;21.30;8.90;;;;;;;0.98;57.18;99885.27;105741;1254;72663;-59
2024/01/11 11:18:28;;;;;;;21.40;9.30;;;;;;;1.03;56.95;99880.71;105723;1254;63074;-59